Time;durP1;ratioP1;P1;durP2;ratioP2;P2;SDS_P1;SDS_P2;PMS_P1;PMS_P2;Temp;Humidity;BMP_temperature;BMP_pressure;BME280_temperature;BME280_humidity;BME280_pressure;Samples;Min_cycle;Max_cycle;Signal;HPM_P1;HPM_P2
2023/09/09 00:01:21;;;;;;;10.07;8.30;;;23.80;99.90;;;;;;5070930;28;20028;-59
2023/09/09 00:03:47;;;;;;;8.68;7.85;;;23.60;99.90;;;;;;5071273;28;20044;-58
2023/09/09 00:06:13;;;;;;;9.32;7.97;;;23.60;99.90;;;;;;5071096;28;20512;-58
2023/09/09 00:08:40;;;;;;;8.75;7.85;;;23.60;99.90;;;;;;5071066;28;20028;-58
2023/09/09 00:11:06;;;;;;;8.93;7.93;;;23.50;99.90;;;;;;5070640;28;20029;-59
2023/09/09 00:13:31;;;;;;;8.93;8.00;;;23.40;99.90;;;;;;5070459;28;20039;-59
2023/09/09 00:15:57;;;;;;;9.70;7.45;;;23.30;99.90;;;;;;5070820;28;20500;-59
2023/09/09 00:18:23;;;;;;;9.73;7.90;;;23.20;99.90;;;;;;5070727;28;20024;-58
2023/09/09 00:20:49;;;;;;;8.85;7.97;;;23.00;99.90;;;;;;5070835;28;20404;-59
2023/09/09 00:23:14;;;;;;;10.65;7.50;;;22.90;99.90;;;;;;5072822;28;20077;-59
2023/09/09 00:25:41;;;;;;;9.30;8.35;;;22.90;99.90;;;;;;5074844;28;20048;-58
2023/09/09 00:28:09;;;;;;;12.55;7.43;;;22.90;99.90;;;;;;5074133;28;20036;-59
2023/09/09 00:30:35;;;;;;;9.48;7.80;;;22.80;99.90;;;;;;5074802;28;20068;-59
2023/09/09 00:33:01;;;;;;;8.40;7.60;;;22.70;99.90;;;;;;5074509;28;20251;-59
2023/09/09 00:35:27;;;;;;;9.77;7.43;;;22.60;99.90;;;;;;5074346;28;20036;-59
2023/09/09 00:37:54;;;;;;;8.25;7.50;;;22.60;99.90;;;;;;5074417;28;20100;-58
2023/09/09 00:40:20;;;;;;;9.60;7.70;;;22.50;99.90;;;;;;5074350;28;20025;-58
2023/09/09 00:42:45;;;;;;;10.93;7.90;;;22.40;99.90;;;;;;5074093;28;20024;-59
2023/09/09 00:45:11;;;;;;;10.35;7.82;;;22.30;99.90;;;;;;5074192;28;20086;-58
2023/09/09 00:47:38;;;;;;;11.75;7.35;;;22.20;99.90;;;;;;5074013;28;20024;-59
2023/09/09 00:50:08;;;;;;;8.55;7.65;;;22.20;99.90;;;;;;5074110;28;20033;-58
2023/09/09 00:52:36;;;;;;;10.13;8.02;;;22.20;99.90;;;;;;5074074;28;20062;-58
2023/09/09 00:55:02;;;;;;;8.27;7.47;;;22.30;99.90;;;;;;5074597;28;20107;-58
2023/09/09 00:57:28;;;;;;;7.85;7.05;;;22.40;99.90;;;;;;5065291;28;20024;-59
2023/09/09 00:59:53;;;;;;;11.85;7.47;;;22.50;99.90;;;;;;5074036;28;20072;-59
2023/09/09 01:02:19;;;;;;;12.07;7.65;;;22.50;99.90;;;;;;5074568;28;20032;-59
2023/09/09 01:04:45;;;;;;;9.85;7.68;;;22.70;99.90;;;;;;5074138;28;20024;-59
2023/09/09 01:07:11;;;;;;;10.05;7.47;;;22.60;99.90;;;;;;5073990;28;20589;-59
2023/09/09 01:09:37;;;;;;;11.15;7.30;;;22.70;99.90;;;;;;5073658;28;20029;-58
2023/09/09 01:12:03;;;;;;;9.30;7.20;;;22.60;99.90;;;;;;5073578;28;20021;-59
2023/09/09 01:14:29;;;;;;;9.50;7.32;;;22.60;99.90;;;;;;5073719;28;20028;-58
2023/09/09 01:16:56;;;;;;;9.50;7.03;;;22.70;99.90;;;;;;5073734;28;20374;-59
2023/09/09 01:19:25;;;;;;;9.75;7.07;;;22.70;99.90;;;;;;5073679;28;20033;-59
2023/09/09 01:21:51;;;;;;;10.15;7.38;;;22.70;99.90;;;;;;5073523;28;20047;-59
2023/09/09 01:24:19;;;;;;;10.15;7.35;;;22.60;99.90;;;;;;5073643;28;20025;-59
2023/09/09 01:26:45;;;;;;;8.10;6.68;;;22.60;99.90;;;;;;5073340;28;20024;-59
2023/09/09 01:29:11;;;;;;;8.02;7.05;;;22.50;99.90;;;;;;5073468;28;20039;-59
2023/09/09 01:31:37;;;;;;;8.43;7.57;;;22.30;99.90;;;;;;5073437;28;20108;-59
2023/09/09 01:34:03;;;;;;;8.15;7.03;;;22.10;99.90;;;;;;5072442;28;20056;-58
2023/09/09 01:36:29;;;;;;;9.00;7.82;;;21.90;99.90;;;;;;5073378;28;20051;-59
2023/09/09 01:38:54;;;;;;;8.38;7.00;;;21.80;99.90;;;;;;5073413;28;20028;-59
2023/09/09 01:41:20;;;;;;;11.10;7.70;;;21.70;99.90;;;;;;5072947;28;20101;-59
2023/09/09 01:43:46;;;;;;;8.38;7.55;;;21.60;99.90;;;;;;5073417;28;20067;-59
2023/09/09 01:46:11;;;;;;;12.25;8.13;;;21.50;99.90;;;;;;5072978;28;20075;-59
2023/09/09 01:48:37;;;;;;;9.82;7.70;;;21.40;99.90;;;;;;5073376;28;20024;-59
2023/09/09 01:51:03;;;;;;;8.80;7.90;;;21.30;99.90;;;;;;5072758;28;20040;-59
2023/09/09 01:53:29;;;;;;;9.18;8.00;;;21.30;99.90;;;;;;5072886;28;20082;-59
2023/09/09 01:55:58;;;;;;;10.40;8.00;;;21.20;99.90;;;;;;5072773;28;20438;-59
2023/09/09 01:58:24;;;;;;;8.45;7.57;;;21.20;99.90;;;;;;5073000;28;20048;-59
2023/09/09 02:00:49;;;;;;;11.50;7.65;;;21.30;99.90;;;;;;5072728;28;20044;-59
2023/09/09 02:03:15;;;;;;;8.55;7.70;;;21.40;99.90;;;;;;5055335;28;20039;-59
2023/09/09 02:05:41;;;;;;;9.15;7.63;;;21.30;99.90;;;;;;5072797;28;20039;-59
2023/09/09 02:08:06;;;;;;;9.60;8.43;;;21.30;99.90;;;;;;5072558;28;20025;-59
2023/09/09 02:10:32;;;;;;;9.65;7.85;;;21.20;99.90;;;;;;5072636;28;20048;-59
2023/09/09 02:12:58;;;;;;;9.63;7.90;;;21.20;99.90;;;;;;5072795;28;20397;-59
2023/09/09 02:15:24;;;;;;;10.00;8.25;;;21.20;99.90;;;;;;5072618;28;20067;-58
2023/09/09 02:17:49;;;;;;;9.40;8.40;;;21.20;99.90;;;;;;5072479;28;20017;-59
2023/09/09 02:20:15;;;;;;;9.73;8.32;;;21.30;99.90;;;;;;5072290;28;20033;-58
2023/09/09 02:22:41;;;;;;;8.75;7.95;;;21.40;99.90;;;;;;5072528;28;20016;-58
2023/09/09 02:25:08;;;;;;;9.40;7.90;;;21.40;99.90;;;;;;5072402;28;20036;-59
2023/09/09 02:27:34;;;;;;;12.60;7.88;;;21.50;99.90;;;;;;5072242;28;20048;-58
2023/09/09 02:30:01;;;;;;;9.00;8.05;;;21.50;99.90;;;;;;5072338;28;20043;-59
2023/09/09 02:32:27;;;;;;;9.63;7.80;;;21.50;99.90;;;;;;5072163;28;20477;-59
2023/09/09 02:34:53;;;;;;;11.30;8.30;;;21.50;99.90;;;;;;5072243;28;20032;-59
2023/09/09 02:37:20;;;;;;;8.68;7.38;;;21.60;99.90;;;;;;5072387;28;20074;-59
2023/09/09 02:39:50;;;;;;;8.55;7.18;;;21.50;99.90;;;;;;5071611;28;20031;-58
2023/09/09 02:42:20;;;;;;;8.20;7.28;;;21.60;99.90;;;;;;5072203;28;20031;-59
2023/09/09 02:44:49;;;;;;;9.18;7.57;;;21.60;99.90;;;;;;5053754;28;20432;-59
2023/09/09 02:47:15;;;;;;;10.05;7.00;;;21.50;99.90;;;;;;5071816;28;20446;-58
2023/09/09 02:49:41;;;;;;;8.48;7.28;;;21.50;99.90;;;;;;5072057;28;20036;-59
2023/09/09 02:52:07;;;;;;;7.88;7.07;;;21.30;99.90;;;;;;5071838;28;20048;-59
2023/09/09 02:54:36;;;;;;;8.30;7.50;;;21.10;99.90;;;;;;5071526;28;20110;-59
2023/09/09 02:57:06;;;;;;;9.32;7.63;;;21.00;99.90;;;;;;5071598;28;20029;-59
2023/09/09 02:59:33;;;;;;;8.98;7.63;;;21.00;99.90;;;;;;5071806;28;20039;-57
2023/09/09 03:01:59;;;;;;;10.48;7.55;;;21.00;99.90;;;;;;5071975;28;20063;-59
2023/09/09 03:04:25;;;;;;;8.30;7.50;;;20.90;99.90;;;;;;5071676;28;20059;-59
2023/09/09 03:06:50;;;;;;;8.48;7.13;;;20.80;99.90;;;;;;5071603;28;20052;-59
2023/09/09 03:09:16;;;;;;;8.10;7.30;;;20.70;99.90;;;;;;5071052;28;20047;-59
2023/09/09 03:11:42;;;;;;;8.68;6.95;;;20.60;99.90;;;;;;5071991;28;20103;-59
2023/09/09 03:14:08;;;;;;;7.85;6.93;;;20.60;99.90;;;;;;5071516;28;20024;-59
2023/09/09 03:16:35;;;;;;;10.80;7.28;;;20.60;99.90;;;;;;5071463;28;20032;-58
2023/09/09 03:19:01;;;;;;;10.52;7.50;;;20.60;99.90;;;;;;5071347;28;20036;-59
2023/09/09 03:21:27;;;;;;;8.18;7.20;;;20.50;99.90;;;;;;5071490;28;20029;-59
2023/09/09 03:23:52;;;;;;;8.75;7.38;;;20.40;99.90;;;;;;5070906;28;20032;-59
2023/09/09 03:26:22;;;;;;;8.60;6.93;;;20.40;99.90;;;;;;5071474;28;20063;-59
2023/09/09 03:28:51;;;;;;;8.25;7.25;;;20.40;99.90;;;;;;5070843;28;20102;-59
2023/09/09 03:31:17;;;;;;;8.75;6.55;;;20.50;99.90;;;;;;5071430;28;20017;-58
2023/09/09 03:33:43;;;;;;;7.15;6.47;;;20.50;99.90;;;;;;5071505;28;20569;-59
2023/09/09 03:36:09;;;;;;;8.13;6.68;;;20.60;99.90;;;;;;5071170;28;20033;-58
2023/09/09 03:38:36;;;;;;;7.35;6.15;;;20.70;99.90;;;;;;5052811;28;20397;-59
2023/09/09 03:41:05;;;;;;;6.65;6.00;;;20.80;99.90;;;;;;5071185;28;20508;-58
2023/09/09 03:43:31;;;;;;;8.60;6.05;;;20.90;99.90;;;;;;5071255;28;20431;-59
2023/09/09 03:45:57;;;;;;;6.93;6.15;;;21.00;99.90;;;;;;5071315;28;20481;-59
2023/09/09 03:48:26;;;;;;;8.02;5.72;;;21.00;99.90;;;;;;5071071;28;20035;-58
2023/09/09 03:50:59;;;;;;;7.43;5.90;;;21.00;99.90;;;;;;5070506;28;20044;-58
2023/09/09 03:53:25;;;;;;;6.40;5.80;;;21.00;99.90;;;;;;5071408;28;20504;-58
2023/09/09 03:55:51;;;;;;;7.45;6.15;;;21.00;99.90;;;;;;5071067;28;20037;-59
2023/09/09 03:58:17;;;;;;;7.63;5.60;;;21.20;99.90;;;;;;5075539;28;20024;-58
2023/09/09 04:00:42;;;;;;;7.15;5.50;;;21.20;99.90;;;;;;5077606;28;20029;-58
2023/09/09 04:03:08;;;;;;;6.00;5.43;;;21.20;99.90;;;;;;5059713;28;20032;-59
2023/09/09 04:05:34;;;;;;;5.47;5.00;;;21.10;99.90;;;;;;5077880;28;20024;-58
2023/09/09 04:08:03;;;;;;;5.88;5.28;;;21.00;99.90;;;;;;5077791;28;20097;-58
2023/09/09 04:10:29;;;;;;;6.00;5.38;;;21.00;99.90;;;;;;5077453;28;20035;-59
2023/09/09 04:12:54;;;;;;;6.35;5.35;;;20.90;99.90;;;;;;5078036;28;20021;-58
2023/09/09 04:15:20;;;;;;;5.85;5.35;;;20.70;99.90;;;;;;5077723;28;20051;-58
2023/09/09 04:17:46;;;;;;;5.47;4.97;;;20.70;99.90;;;;;;5077520;28;20051;-59
2023/09/09 04:20:11;;;;;;;5.80;5.07;;;20.70;99.90;;;;;;5077037;28;20029;-58
2023/09/09 04:22:37;;;;;;;5.20;4.78;;;20.60;99.90;;;;;;5077619;28;20104;-59
2023/09/09 04:25:03;;;;;;;5.90;5.32;;;20.60;99.90;;;;;;5059663;28;20036;-58
2023/09/09 04:27:28;;;;;;;5.47;4.75;;;20.60;99.90;;;;;;5077584;28;20052;-58
2023/09/09 04:29:54;;;;;;;7.15;5.13;;;20.50;99.90;;;;;;5077549;28;20083;-58
2023/09/09 04:32:20;;;;;;;6.15;5.00;;;20.40;99.90;;;;;;5077419;28;20081;-59
2023/09/09 04:34:45;;;;;;;5.60;4.70;;;20.40;99.90;;;;;;5077115;28;20153;-58
2023/09/09 04:37:11;;;;;;;6.07;4.68;;;20.40;99.90;;;;;;5077451;28;20363;-59
2023/09/09 04:39:37;;;;;;;5.63;5.05;;;20.30;99.90;;;;;;5077463;28;20031;-59
2023/09/09 04:42:03;;;;;;;5.82;5.32;;;20.30;99.90;;;;;;5077388;28;20035;-58
2023/09/09 04:44:28;;;;;;;6.00;4.93;;;20.40;99.90;;;;;;5077450;28;20020;-59
2023/09/09 04:46:54;;;;;;;6.30;5.38;;;20.30;99.90;;;;;;5077391;28;20526;-59
2023/09/09 04:49:19;;;;;;;7.30;4.97;;;20.30;99.90;;;;;;5076888;28;20036;-59
2023/09/09 04:51:45;;;;;;;8.38;5.20;;;20.20;99.90;;;;;;5077065;28;20036;-59
2023/09/09 04:54:11;;;;;;;5.50;5.00;;;20.20;99.90;;;;;;5077585;28;20124;-59
2023/09/09 04:56:36;;;;;;;9.35;5.20;;;20.30;99.90;;;;;;5077654;28;20489;-58
2023/09/09 04:59:02;;;;;;;6.10;5.22;;;20.50;99.90;;;;;;5076932;28;20020;-59
2023/09/09 05:01:28;;;;;;;6.05;5.13;;;20.60;99.90;;;;;;5077164;28;20428;-58
2023/09/09 05:03:53;;;;;;;6.18;5.15;;;20.70;99.90;;;;;;5076668;28;20394;-59
2023/09/09 05:06:19;;;;;;;5.70;5.13;;;20.70;99.90;;;;;;5059463;28;20032;-58
2023/09/09 05:08:46;;;;;;;5.80;5.30;;;20.70;99.90;;;;;;5076007;28;20025;-58
2023/09/09 05:11:11;;;;;;;6.07;5.22;;;20.70;99.90;;;;;;5073804;28;20033;-58
2023/09/09 05:13:37;;;;;;;5.30;4.90;;;20.70;99.90;;;;;;5073866;28;20374;-58
2023/09/09 05:16:03;;;;;;;6.60;4.80;;;20.70;99.90;;;;;;5073789;28;20024;-58
2023/09/09 05:18:29;;;;;;;5.32;4.80;;;20.80;99.90;;;;;;5073720;28;20488;-59
2023/09/09 05:20:55;;;;;;;8.20;4.88;;;20.80;99.90;;;;;;5055697;28;20046;-58
2023/09/09 05:23:20;;;;;;;6.03;5.20;;;20.70;99.90;;;;;;5073678;28;20028;-58
2023/09/09 05:25:47;;;;;;;6.32;5.30;;;20.70;99.90;;;;;;5073749;28;20029;-58
2023/09/09 05:28:13;;;;;;;7.97;5.57;;;20.70;99.90;;;;;;5073599;28;20162;-59
2023/09/09 05:30:40;;;;;;;5.20;4.80;;;20.50;99.90;;;;;;5073461;28;20075;-58
2023/09/09 05:33:06;;;;;;;7.22;5.10;;;20.40;99.90;;;;;;5073131;28;20029;-59
2023/09/09 05:35:31;;;;;;;7.30;5.50;;;20.20;99.90;;;;;;5055507;28;20044;-59
2023/09/09 05:37:57;;;;;;;6.65;5.10;;;20.10;99.90;;;;;;5055175;28;20027;-59
2023/09/09 05:40:23;;;;;;;6.00;5.40;;;20.00;99.90;;;;;;5073283;28;20396;-59
2023/09/09 05:42:48;;;;;;;6.00;4.85;;;19.90;99.90;;;;;;5073276;28;20059;-59
2023/09/09 05:45:14;;;;;;;5.70;5.22;;;19.90;99.90;;;;;;5065293;28;20027;-59
2023/09/09 05:47:42;;;;;;;6.00;5.10;;;19.90;99.90;;;;;;5062006;28;20024;-58
2023/09/09 05:50:08;;;;;;;6.13;5.28;;;19.90;99.90;;;;;;5062729;28;20036;-59
2023/09/09 05:52:34;;;;;;;5.93;4.95;;;20.00;99.90;;;;;;5065515;28;20439;-59
2023/09/09 05:55:00;;;;;;;5.68;5.15;;;20.00;99.90;;;;;;5073164;28;20033;-59
2023/09/09 05:57:25;;;;;;;6.47;5.20;;;20.00;99.90;;;;;;5073262;28;20055;-59
2023/09/09 05:59:51;;;;;;;5.72;5.22;;;20.00;99.90;;;;;;5072991;28;20543;-59
2023/09/09 06:02:17;;;;;;;6.63;5.35;;;20.00;99.90;;;;;;5072518;28;20558;-59
2023/09/09 06:04:42;;;;;;;6.45;4.90;;;20.00;99.90;;;;;;5072699;28;20482;-57
2023/09/09 06:07:08;;;;;;;6.25;5.43;;;20.00;99.90;;;;;;5072659;28;20063;-59
2023/09/09 06:09:34;;;;;;;6.50;4.97;;;20.20;99.90;;;;;;5054783;28;20024;-58
2023/09/09 06:12:01;;;;;;;6.15;4.55;;;20.30;99.90;;;;;;5072785;28;20038;-58
2023/09/09 06:14:27;;;;;;;5.38;4.88;;;20.30;99.90;;;;;;5072949;28;20029;-58
2023/09/09 06:16:52;;;;;;;5.90;5.30;;;20.50;99.90;;;;;;5072068;28;20457;-57
2023/09/09 06:19:18;;;;;;;5.30;4.82;;;20.70;99.90;;;;;;5064522;28;20100;-57
2023/09/09 06:21:44;;;;;;;6.30;5.20;;;20.80;99.90;;;;;;5072316;28;20025;-58
2023/09/09 06:24:12;;;;;;;7.75;5.22;;;20.90;99.90;;;;;;5065899;28;20024;-58
2023/09/09 06:26:38;;;;;;;7.35;5.30;;;21.00;99.90;;;;;;5063252;28;20020;-59
2023/09/09 06:29:04;;;;;;;8.05;5.40;;;21.10;99.90;;;;;;5071325;28;20093;-58
2023/09/09 06:31:29;;;;;;;7.75;5.13;;;21.10;99.90;;;;;;5079340;28;20079;-59
2023/09/09 06:33:55;;;;;;;5.35;4.53;;;21.20;99.90;;;;;;5082333;28;20024;-59
2023/09/09 06:36:21;;;;;;;5.82;4.63;;;21.20;99.90;;;;;;5071436;28;20043;-58
2023/09/09 06:38:47;;;;;;;6.57;4.85;;;21.20;99.90;;;;;;5071325;28;20374;-58
2023/09/09 06:41:13;;;;;;;5.38;4.50;;;21.30;99.90;;;;;;5071312;28;20027;-58
2023/09/09 06:43:39;;;;;;;5.03;4.63;;;21.40;99.90;;;;;;5071080;28;20024;-58
2023/09/09 06:46:05;;;;;;;5.30;4.80;;;21.30;99.90;;;;;;5071136;28;20074;-58
2023/09/09 06:48:30;;;;;;;5.65;4.53;;;21.30;99.90;;;;;;5068537;28;20048;-58
2023/09/09 06:50:56;;;;;;;4.97;4.57;;;21.20;99.90;;;;;;5071133;28;20039;-58
2023/09/09 06:53:24;;;;;;;5.00;4.50;;;21.10;99.90;;;;;;5091420;28;20024;-58
2023/09/09 06:55:50;;;;;;;6.15;4.70;;;21.10;99.90;;;;;;5092455;28;20040;-59
2023/09/09 06:58:16;;;;;;;4.68;4.28;;;21.10;99.90;;;;;;5092033;28;20020;-58
2023/09/09 07:00:48;;;;;;;5.13;4.47;;;21.10;99.90;;;;;;5091398;28;20038;-58
2023/09/09 07:03:14;;;;;;;5.88;4.30;;;21.20;99.90;;;;;;5091825;28;20046;-57
2023/09/09 07:05:40;;;;;;;6.10;4.93;;;21.30;99.90;;;;;;5091845;28;20382;-58
2023/09/09 07:08:05;;;;;;;5.03;4.53;;;21.30;99.90;;;;;;5091445;28;20024;-58
2023/09/09 07:10:31;;;;;;;5.57;4.85;;;21.50;99.90;;;;;;5091648;28;20032;-58
2023/09/09 07:12:57;;;;;;;5.00;4.60;;;21.70;99.90;;;;;;5092155;28;20020;-58
2023/09/09 07:15:22;;;;;;;5.18;4.50;;;21.80;99.90;;;;;;5091220;28;20408;-58
2023/09/09 07:17:48;;;;;;;5.05;4.30;;;21.70;99.90;;;;;;5091899;28;20028;-58
2023/09/09 07:20:15;;;;;;;6.65;4.43;;;21.70;99.90;;;;;;5067438;28;20864;-58
2023/09/09 07:22:41;;;;;;;5.10;4.63;;;21.80;99.90;;;;;;5071729;28;20047;-57
2023/09/09 07:25:08;;;;;;;5.10;4.45;;;21.90;99.90;;;;;;5071186;28;20485;-59
2023/09/09 07:27:34;;;;;;;5.15;4.20;;;21.90;99.90;;;;;;5071091;28;20075;-58
2023/09/09 07:30:00;;;;;;;4.95;4.40;;;21.90;99.90;;;;;;5071115;28;20032;-58
2023/09/09 07:32:25;;;;;;;6.03;4.30;;;22.00;99.90;;;;;;5082746;28;20094;-58
2023/09/09 07:34:51;;;;;;;5.68;4.60;;;22.20;99.90;;;;;;5090898;28;20086;-58
2023/09/09 07:37:17;;;;;;;5.13;4.38;;;22.30;99.90;;;;;;5091308;28;20055;-58
2023/09/09 07:39:49;;;;;;;4.57;4.15;;;22.50;99.90;;;;;;5090547;28;20035;-58
2023/09/09 07:42:14;;;;;;;7.78;4.43;;;22.70;99.90;;;;;;5090796;28;20028;-59
2023/09/09 07:44:40;;;;;;;4.50;4.10;;;22.80;99.90;;;;;;5078960;28;20370;-59
2023/09/09 07:47:07;;;;;;;4.97;4.30;;;22.90;99.90;;;;;;5088552;28;20028;-58
2023/09/09 07:49:36;;;;;;;4.68;4.28;;;22.90;99.90;;;;;;5091048;28;20405;-58
2023/09/09 07:52:04;;;;;;;4.68;4.28;;;23.00;99.90;;;;;;5085284;28;20032;-58
2023/09/09 07:54:31;;;;;;;5.65;4.13;;;23.00;99.90;;;;;;5085847;28;20024;-58
2023/09/09 07:56:58;;;;;;;7.10;4.20;;;23.10;99.90;;;;;;5090751;28;20023;-58
2023/09/09 07:59:31;;;;;;;4.70;4.10;;;23.10;99.90;;;;;;5090539;28;20393;-58
2023/09/09 08:01:56;;;;;;;5.00;4.30;;;23.20;99.90;;;;;;5090819;28;20032;-58
2023/09/09 08:04:23;;;;;;;6.20;4.30;;;23.20;99.90;;;;;;5081870;28;20040;-58
2023/09/09 08:06:52;;;;;;;6.13;4.50;;;23.40;99.90;;;;;;5087591;28;20019;-60
2023/09/09 08:09:19;;;;;;;5.22;4.72;;;23.40;99.90;;;;;;5088273;28;20040;-58
2023/09/09 08:11:45;;;;;;;5.00;4.50;;;23.20;99.90;;;;;;5090032;28;20027;-58
2023/09/09 08:14:11;;;;;;;6.00;4.30;;;23.20;99.90;;;;;;5090472;28;20489;-58
2023/09/09 08:16:36;;;;;;;5.53;4.57;;;23.10;99.90;;;;;;5090598;28;20043;-58
2023/09/09 08:19:03;;;;;;;4.57;4.00;;;23.10;99.90;;;;;;5090789;28;20028;-58
2023/09/09 08:21:28;;;;;;;5.25;4.47;;;23.10;99.90;;;;;;5089763;28;20028;-58
2023/09/09 08:23:59;;;;;;;6.18;4.63;;;23.20;99.90;;;;;;5088036;28;20027;-59
2023/09/09 08:26:25;;;;;;;5.07;4.57;;;23.20;99.90;;;;;;5082121;28;20036;-58
2023/09/09 08:28:50;;;;;;;5.20;4.80;;;23.10;99.90;;;;;;5070091;28;20098;-59
2023/09/09 08:31:16;;;;;;;6.97;4.40;;;23.10;99.90;;;;;;5050964;28;20498;-58
2023/09/09 08:33:42;;;;;;;4.32;3.92;;;23.10;99.90;;;;;;5050547;28;20100;-59
2023/09/09 08:36:07;;;;;;;4.97;4.47;;;23.10;99.90;;;;;;5032850;28;20053;-59
2023/09/09 08:38:33;;;;;;;4.95;4.20;;;23.10;99.90;;;;;;5050581;28;20025;-58
2023/09/09 08:41:24;;;;;;;6.70;4.45;;;23.20;99.90;;;;;;5049913;28;20494;-58
2023/09/09 08:44:08;;;;;;;6.20;4.50;;;23.20;99.90;;;;;;5051361;28;20025;-59
2023/09/09 08:46:34;;;;;;;6.28;4.43;;;23.30;99.90;;;;;;5059328;28;20029;-58
2023/09/09 08:49:02;;;;;;;5.03;4.47;;;23.30;99.90;;;;;;5056681;28;20482;-59
2023/09/09 08:51:57;;;;;;;5.45;4.75;;;23.40;99.90;;;;;;5074159;28;20052;-58
2023/09/09 08:54:25;;;;;;;5.28;4.78;;;23.60;99.90;;;;;;5073978;28;20023;-58
2023/09/09 08:56:51;;;;;;;5.05;4.53;;;23.90;99.90;;;;;;5073767;28;20036;-59
2023/09/09 08:59:18;;;;;;;5.78;4.40;;;24.20;99.90;;;;;;5074117;28;20028;-58
2023/09/09 09:01:45;;;;;;;5.45;4.90;;;24.20;99.90;;;;;;5073920;28;20062;-59
2023/09/09 09:04:12;;;;;;;5.95;4.45;;;24.40;99.90;;;;;;5074275;28;20024;-59
2023/09/09 09:06:39;;;;;;;7.13;4.70;;;24.60;99.90;;;;;;5055850;28;20378;-58
2023/09/09 09:09:05;;;;;;;7.50;4.82;;;24.70;99.90;;;;;;5073655;28;20025;-58
2023/09/09 09:11:31;;;;;;;7.00;4.45;;;24.70;99.90;;;;;;5079621;28;20396;-59
2023/09/09 09:14:07;;;;;;;5.20;4.70;;;24.80;99.90;;;;;;5093076;28;20512;-58
2023/09/09 09:16:42;;;;;;;6.30;4.78;;;24.90;99.90;;;;;;5078657;28;20024;-58
2023/09/09 09:19:27;;;;;;;5.38;4.32;;;25.00;99.90;;;;;;5092356;28;20525;-59
2023/09/09 09:21:54;;;;;;;4.82;4.30;;;25.10;99.90;;;;;;5090910;28;20114;-58
2023/09/09 09:24:27;;;;;;;5.47;4.70;;;25.10;99.90;;;;;;5093507;28;20022;-58
2023/09/09 09:26:54;;;;;;;6.32;4.65;;;25.20;99.90;;;;;;5093316;28;20056;-59
2023/09/09 09:29:20;;;;;;;5.57;4.63;;;25.40;99.90;;;;;;5093680;28;20495;-58
2023/09/09 09:31:54;;;;;;;4.35;3.95;;;25.50;99.90;;;;;;5075427;28;20032;-59
2023/09/09 09:34:20;;;;;;;;;;;25.70;99.90;;;;;;5094247;28;20507;-59
2023/09/09 09:36:46;;;;;;;5.78;4.70;;;25.70;99.90;;;;;;5093619;28;19904;-59
2023/09/09 09:39:12;;;;;;;5.80;4.68;;;25.60;99.90;;;;;;5093229;28;20096;-58
2023/09/09 09:41:41;;;;;;;5.63;4.82;;;25.50;99.90;;;;;;5093578;28;20059;-59
2023/09/09 09:44:20;;;;;;;6.55;4.60;;;25.40;99.90;;;;;;5093518;28;20107;-58
2023/09/09 09:47:03;;;;;;;5.53;4.75;;;25.50;99.90;;;;;;5093541;28;20040;-59
2023/09/09 09:49:48;;;;;;;7.25;4.97;;;25.40;99.90;;;;;;5093299;28;20103;-59
2023/09/09 09:52:24;;;;;;;8.68;4.63;;;25.60;99.90;;;;;;5091050;28;20032;-58
2023/09/09 09:54:53;;;;;;;6.10;5.00;;;25.80;99.90;;;;;;5092246;28;20032;-59
2023/09/09 09:57:21;;;;;;;6.25;4.70;;;25.80;99.90;;;;;;5093559;28;20393;-59
2023/09/09 09:59:47;;;;;;;5.00;4.50;;;25.90;99.90;;;;;;5093258;28;20028;-58
2023/09/09 10:02:15;;;;;;;5.43;4.90;;;26.00;99.90;;;;;;5093164;28;20615;-59
2023/09/09 10:04:47;;;;;;;6.10;4.80;;;26.00;99.90;;;;;;5093136;28;20027;-59
2023/09/09 10:07:17;;;;;;;6.20;5.10;;;26.00;99.90;;;;;;5093193;28;20027;-59
2023/09/09 10:10:01;;;;;;;6.07;4.90;;;26.20;99.90;;;;;;5092759;28;20028;-61
2023/09/09 10:12:37;;;;;;;6.43;4.85;;;26.30;99.90;;;;;;5093509;28;20051;-59
2023/09/09 10:15:04;;;;;;;5.30;4.80;;;26.40;99.90;;;;;;5092833;28;20036;-59
2023/09/09 10:17:31;;;;;;;5.30;4.80;;;26.40;99.90;;;;;;5092987;28;20069;-59
2023/09/09 10:19:58;;;;;;;5.22;4.75;;;26.50;99.90;;;;;;5089326;28;20565;-59
2023/09/09 10:22:25;;;;;;;5.45;4.75;;;26.50;99.90;;;;;;5072363;28;20088;-59
2023/09/09 10:24:52;;;;;;;6.00;4.63;;;26.60;99.90;;;;;;5072342;28;20037;-59
2023/09/09 10:27:19;;;;;;;6.30;5.03;;;26.70;99.90;;;;;;5072437;28;20041;-58
2023/09/09 10:29:47;;;;;;;15.88;5.15;;;27.00;99.90;;;;;;5072299;28;20047;-59
2023/09/09 10:32:16;;;;;;;5.53;4.78;;;27.20;99.90;;;;;;5072270;28;20531;-58
2023/09/09 10:34:43;;;;;;;5.75;4.68;;;27.30;99.90;;;;;;5072294;28;20401;-59
2023/09/09 10:37:10;;;;;;;4.95;4.45;;;27.40;99.90;;;;;;5072010;28;20028;-58
2023/09/09 10:39:38;;;;;;;5.05;4.55;;;27.40;99.90;;;;;;5071898;28;20032;-59
2023/09/09 10:42:05;;;;;;;6.38;4.72;;;27.60;99.90;;;;;;5072066;28;20494;-58
2023/09/09 10:44:31;;;;;;;6.03;4.47;;;27.80;99.90;;;;;;5072376;28;20058;-58
2023/09/09 10:46:57;;;;;;;5.10;4.55;;;27.90;99.90;;;;;;5072106;28;20545;-59
2023/09/09 10:49:32;;;;;;;6.22;4.63;;;27.90;99.90;;;;;;5071896;28;20111;-58
2023/09/09 10:51:57;;;;;;;6.18;5.07;;;28.00;99.90;;;;;;5071798;28;20047;-59
2023/09/09 10:54:25;;;;;;;5.15;4.20;;;28.00;99.90;;;;;;5071900;28;20452;-59
2023/09/09 10:56:52;;;;;;;4.32;4.00;;;28.20;99.90;;;;;;5071793;28;20043;-58
2023/09/09 10:59:24;;;;;;;6.05;4.22;;;28.30;99.90;;;;;;5072269;28;20497;-59
2023/09/09 11:02:14;;;;;;;5.60;4.28;;;28.40;99.90;;;;;;5071798;28;20112;-59
2023/09/09 11:04:41;;;;;;;5.57;4.90;;;28.50;99.90;;;;;;5071828;28;20037;-59
2023/09/09 11:07:08;;;;;;;5.50;4.70;;;28.40;99.90;;;;;;5071170;28;20024;-59
2023/09/09 11:09:34;;;;;;;5.60;4.10;;;28.30;99.90;;;;;;5071859;28;20042;-59
2023/09/09 11:12:11;;;;;;;5.53;4.60;;;28.40;99.90;;;;;;5071703;28;20108;-59
2023/09/09 11:14:40;;;;;;;4.95;4.50;;;28.50;99.90;;;;;;5071560;28;20024;-59
2023/09/09 11:17:09;;;;;;;5.55;4.15;;;28.50;99.90;;;;;;5071881;28;20032;-59
2023/09/09 11:19:36;;;;;;;6.20;4.60;;;28.60;99.90;;;;;;5071395;28;20048;-59
2023/09/09 11:22:04;;;;;;;4.78;4.38;;;28.70;99.90;;;;;;5071144;28;20044;-58
2023/09/09 11:24:30;;;;;;;6.45;4.68;;;28.90;99.90;;;;;;5071951;28;20385;-59
2023/09/09 11:26:56;;;;;;;5.10;4.15;;;29.10;99.90;;;;;;5071474;28;20043;-59
2023/09/09 11:29:22;;;;;;;5.95;4.13;;;29.10;99.90;;;;;;5071421;28;20028;-59
2023/09/09 11:31:48;;;;;;;5.28;4.18;;;29.10;99.90;;;;;;5071374;28;20437;-59
2023/09/09 11:34:14;;;;;;;6.15;4.75;;;29.10;99.90;;;;;;5071286;28;20025;-59
2023/09/09 11:36:41;;;;;;;4.80;4.30;;;29.20;99.90;;;;;;5071266;28;20032;-59
2023/09/09 11:39:07;;;;;;;7.32;4.43;;;29.30;99.90;;;;;;5071170;28;20489;-59
2023/09/09 11:41:35;;;;;;;4.88;4.00;;;29.40;99.90;;;;;;5071200;28;20029;-59
2023/09/09 11:44:09;;;;;;;5.63;4.45;;;29.50;99.90;;;;;;5071549;28;20025;-60
2023/09/09 11:46:35;;;;;;;;;;;29.80;99.90;;;;;;5072119;28;20444;-59
2023/09/09 11:49:00;;;;;;;5.97;4.03;;;30.00;99.90;;;;;;5071128;28;19908;-58
2023/09/09 11:51:27;;;;;;;6.72;4.10;;;30.20;99.90;;;;;;5070471;28;20413;-59
2023/09/09 11:53:53;;;;;;;6.68;4.50;;;30.40;99.90;;;;;;5071105;28;20110;-58
2023/09/09 11:56:19;;;;;;;7.50;4.70;;;30.50;99.90;;;;;;5071435;28;20020;-59
2023/09/09 11:58:45;;;;;;;6.75;4.97;;;30.40;99.90;;;;;;5071025;28;20025;-59
2023/09/09 12:01:12;;;;;;;5.20;4.50;;;30.40;99.90;;;;;;5071264;28;20039;-59
2023/09/09 12:03:38;;;;;;;7.88;4.30;;;30.70;99.90;;;;;;5071399;28;20028;-59
2023/09/09 12:06:07;;;;;;;6.13;4.82;;;30.80;99.90;;;;;;5070560;28;20401;-59
2023/09/09 12:08:33;;;;;;;7.13;4.32;;;30.90;99.90;;;;;;5070853;28;20035;-59
2023/09/09 12:11:01;;;;;;;6.30;4.38;;;31.00;99.90;;;;;;5071060;28;20032;-59
2023/09/09 12:13:27;;;;;;;6.65;4.20;;;31.00;99.90;;;;;;5070684;28;20627;-58
2023/09/09 12:15:55;;;;;;;10.70;4.57;;;31.10;99.90;;;;;;5071084;28;20052;-59
2023/09/09 12:18:21;;;;;;;5.05;4.55;;;31.10;99.90;;;;;;5071315;28;20047;-59
2023/09/09 12:21:00;;;;;;;7.65;4.85;;;31.10;99.90;;;;;;5074562;28;20044;-59
2023/09/09 12:23:33;;;;;;;9.30;5.35;;;31.00;99.90;;;;;;5074901;28;20017;-58
2023/09/09 12:26:15;;;;;;;8.90;5.47;;;31.00;99.90;;;;;;5074805;28;20026;-59
2023/09/09 12:28:43;;;;;;;6.28;4.70;;;31.10;99.90;;;;;;5074326;28;20047;-59
2023/09/09 12:31:10;;;;;;;8.18;4.60;;;31.20;99.90;;;;;;5074787;28;20032;-59
2023/09/09 12:33:39;;;;;;;6.38;4.60;;;31.30;99.90;;;;;;5074265;28;20039;-58
2023/09/09 12:36:06;;;;;;;8.02;4.90;;;31.40;99.90;;;;;;5074620;28;20500;-59
2023/09/09 12:38:40;;;;;;;6.95;4.97;;;31.40;99.90;;;;;;5074983;28;20031;-59
2023/09/09 12:41:07;;;;;;;7.38;5.13;;;31.40;99.90;;;;;;5074467;28;20024;-59
2023/09/09 12:43:34;;;;;;;8.20;5.03;;;31.30;99.90;;;;;;5074495;28;20077;-59
2023/09/09 12:46:08;;;;;;;10.45;5.20;;;31.30;99.90;;;;;;5074211;28;20486;-59